Grand Rapids, MI

4:13 AM EDT on September 01, 2014 (GMT -0400)
Verbrugge Home | Change Station
CLOSE
Current Station
Personal Weather Station
Location: Grand Rapids, MI
Elevation: 754 ft
Nearby Weather Stations

Elev 754 ft 42.92 °N, 85.63 °W | Updated 12 minutes ago

Clear
Clear
68.9 °F
Feels Like 68.9 °F
N
0.0
Wind Variable Wind from NNW
Gusts 0.0 mph

Today
High -- | Low -- °F
--% Chance of Precip.
Yesterday
High -- | Low -- °F
Precip. -- in
7:07 AM 8:17 PM
Waxing Crescent, 38% visible
Pressure 29.87 in
Visibility 7.0 miles
Clouds Few 2700 ft
Dew Point 69 °F
Humidity 100%
Rainfall 0.00 in
Snow Depth Not available.
UV 0 out of 12
Pollen 6.60 out of 12
Ozone Good
PM2.5 Good
Flu Activity Not available.
METAR KGRR 010753Z AUTO 17007KT 7SM FEW027 20/20 A2988 RMK AO2 SLP114 T02000200 $

More Conditions Fewer Conditions

Pressure 29.87 in
Visibility 7.0 miles
Clouds Few 2700 ft
Dew Point 69 °F
Humidity 100%
Rainfall 0.00 in
Snow Depth Not available.
UV 0 out of 12
Pollen 6.60 out of 12
Ozone Good
PM2.5 Good
Flu Activity Not available.
METAR KGRR 010753Z AUTO 17007KT 7SM FEW027 20/20 A2988 RMK AO2 SLP114 T02000200 $

More Conditions Fewer Conditions

10-Day Weather Forecast

Almanac

Astronomy

Sep. 01, 2014 Rise Set
Actual Time 7:07 AM EDT 8:17 PM EDT
Civil Twilight 6:37 AM EDT 8:46 PM EDT
Nautical Twilight 6:02 AM EDT 9:21 PM EDT
Astronomical Twilight 5:26 AM EDT 9:57 PM EDT
Moon 2:02 PM EDT No Moon Set
Length of Visible Light 14h 08m
Length of Day
13h 10m
Tomorrow will be 2m 48s shorter.
Waxing Crescent, 38% of the Moon is Illuminated
Today
Waxing Crescent
Sep 2
First Quarter
Sep 8
Full
Sep 15
Last Quarter
Sep 24
New

Today's Extremes

State Highs State Lows

Community

WunderPhotos

Upload Photos

1,749,175 photos uploaded!

Nearby

Air Quality

  Air Quality AQ Index Pollutant
Yesterday Good
OZONE
Yesterday Good
PM2.5
Current Good
PM2.5
Current Good
OZONE
Monday Good
OZONE
Monday Good
PM2.5
Tuesday Good
OZONE
Tuesday Good
PM2.5

Snow Depth

Station Depth Elevation
No new snow has been reported.

Earthquake Activity

City Distance Mag. Time & Date
No recent earthquake activity has been reported nearby.
Minimum magnitude displayed is 2.5.

Coastal Water Temperatures

Place Temperature
Holland, MI 70.0 °F

Nearby Weather Stations